Terminal Aerodrome Forecast
Issued by NWS

Home | Current Version | Previous Version | Text Only | Print | Product List | Glossary Off
Versions: 1 2 3 4 5 6 7 8 9 10 11 12 13 14 15 16 17 18 19 20

000
FTUS43 KBIS 201139
TAFJMS
TAF
KJMS 201139Z 2012/2112 07004KT P6SM OVC110
     FM201500 07009KT P6SM VCSH BKN070
     FM201800 06011KT P6SM -SHRA OVC050
     FM210300 04008KT 5SM -RA BR OVC020
     FM210600 36009KT 3SM BR OVC015=

USA.gov is the U.S. government's official web portal to all federal, state and local government web resources and services.